EJA2972 KOPF-KSGF
Flight info
| Callsign | EJA2972 |
|---|---|
| Flight time | N/A |
| Altitude | 43000 |
| Route | HURCN4 SMELZ Q110 JOKKY |
| Aircraft | C750/M-SBDE3FGHRWXY/S |
Departure
| Time | 2026-04-24 22:13 |
|---|---|
| Airport | Miami-Opa Locka Executive Airport (KOPF) |
Arrival
| Time | N/A |
|---|---|
| Airport | Springfield Branson National Airport (KSGF) |
| Time | Latitude | Longitude | Altitude | Speed | Heading |
|---|---|---|---|---|---|
| 2026-04-24 21:44 | 25.90670 | -80.27522 | 14 ft | 0 kts | 121° |
| 2026-04-24 22:02 | 25.90661 | -80.27511 | 14 ft | 3 kts | 152° |
| 2026-04-24 22:03 | 25.90640 | -80.27530 | 15 ft | 5 kts | 252° |
| 2026-04-24 22:03 | 25.90635 | -80.27547 | 15 ft | 0 kts | 252° |
| 2026-04-24 22:05 | 25.90630 | -80.27564 | 15 ft | 5 kts | 249° |
| 2026-04-24 22:05 | 25.90600 | -80.27611 | 16 ft | 10 kts | 237° |
| 2026-04-24 22:05 | 25.90580 | -80.27679 | 17 ft | 8 kts | 260° |
| 2026-04-24 22:05 | 25.90581 | -80.27745 | 17 ft | 10 kts | 278° |
| 2026-04-24 22:06 | 25.90600 | -80.27825 | 19 ft | 11 kts | 295° |
| 2026-04-24 22:06 | 25.90641 | -80.27900 | 19 ft | 11 kts | 302° |
| 2026-04-24 22:06 | 25.90682 | -80.27973 | 18 ft | 11 kts | 302° |
| 2026-04-24 22:06 | 25.90721 | -80.28043 | 18 ft | 10 kts | 302° |
| 2026-04-24 22:07 | 25.90757 | -80.28105 | 18 ft | 9 kts | 302° |
| 2026-04-24 22:07 | 25.90788 | -80.28160 | 19 ft | 10 kts | 302° |
| 2026-04-24 22:07 | 25.90831 | -80.28237 | 17 ft | 14 kts | 302° |
| 2026-04-24 22:07 | 25.90882 | -80.28329 | 16 ft | 14 kts | 302° |
| 2026-04-24 22:08 | 25.90930 | -80.28415 | 16 ft | 12 kts | 302° |
| 2026-04-24 22:08 | 25.90972 | -80.28489 | 17 ft | 11 kts | 303° |
| 2026-04-24 22:08 | 25.91009 | -80.28554 | 16 ft | 10 kts | 302° |
| 2026-04-24 22:08 | 25.91043 | -80.28614 | 16 ft | 9 kts | 302° |
| 2026-04-24 22:09 | 25.91071 | -80.28666 | 17 ft | 7 kts | 300° |
| 2026-04-24 22:09 | 25.91099 | -80.28714 | 18 ft | 9 kts | 302° |
| 2026-04-24 22:09 | 25.91130 | -80.28775 | 19 ft | 9 kts | 286° |
| 2026-04-24 22:09 | 25.91148 | -80.28831 | 20 ft | 7 kts | 313° |
| 2026-04-24 22:10 | 25.91168 | -80.28839 | 19 ft | 0 kts | 355° |
| 2026-04-24 22:11 | 25.91178 | -80.28840 | 19 ft | 4 kts | 355° |
| 2026-04-24 22:11 | 25.91227 | -80.28843 | 20 ft | 9 kts | 1° |
| 2026-04-24 22:12 | 25.91269 | -80.28814 | 20 ft | 4 kts | 71° |
| 2026-04-24 22:12 | 25.91271 | -80.28776 | 19 ft | 13 kts | 87° |
| 2026-04-24 22:12 | 25.91294 | -80.28273 | 12 ft | 119 kts | 86° |
| 2026-04-24 22:12 | 25.91358 | -80.27184 | 298 ft | 154 kts | 88° |
| 2026-04-24 22:13 | 25.91465 | -80.25944 | 899 ft | 167 kts | 85° |
| 2026-04-24 22:13 | 25.91582 | -80.24640 | 1593 ft | 170 kts | 85° |
| 2026-04-24 22:13 | 25.91698 | -80.23298 | 2067 ft | 190 kts | 86° |
| 2026-04-24 22:13 | 25.92121 | -80.21760 | 2158 ft | 227 kts | 57° |
| 2026-04-24 22:14 | 25.93318 | -80.20680 | 3102 ft | 221 kts | 29° |
| 2026-04-24 22:14 | 25.94904 | -80.20396 | 3475 ft | 250 kts | 352° |
| 2026-04-24 22:14 | 25.96544 | -80.21239 | 3974 ft | 270 kts | 318° |
| 2026-04-24 22:14 | 25.97844 | -80.22705 | 5141 ft | 263 kts | 311° |
| 2026-04-24 22:15 | 25.99097 | -80.24201 | 6125 ft | 266 kts | 312° |
| 2026-04-24 22:15 | 26.00387 | -80.25696 | 7010 ft | 270 kts | 313° |
| 2026-04-24 22:15 | 26.01698 | -80.27196 | 8047 ft | 270 kts | 313° |
| 2026-04-24 22:15 | 26.03008 | -80.28708 | 9082 ft | 273 kts | 313° |
| 2026-04-24 22:16 | 26.03888 | -80.29729 | 9699 ft | 277 kts | 313° |
| 2026-04-24 22:16 | 26.05237 | -80.31291 | 10415 ft | 287 kts | 313° |
| 2026-04-24 22:16 | 26.06686 | -80.32968 | 10589 ft | 315 kts | 313° |
| 2026-04-24 22:16 | 26.08268 | -80.34798 | 10675 ft | 341 kts | 313° |
| 2026-04-24 22:17 | 26.09924 | -80.36711 | 11364 ft | 343 kts | 313° |
| 2026-04-24 22:17 | 26.11583 | -80.38629 | 12092 ft | 346 kts | 313° |
| 2026-04-24 22:17 | 26.13255 | -80.40567 | 12794 ft | 348 kts | 313° |
| 2026-04-24 22:17 | 26.14943 | -80.42525 | 13510 ft | 351 kts | 313° |
| 2026-04-24 22:18 | 26.16647 | -80.44499 | 14154 ft | 355 kts | 313° |
| 2026-04-24 22:18 | 26.18365 | -80.46491 | 14785 ft | 357 kts | 313° |
| 2026-04-24 22:18 | 26.20089 | -80.48492 | 15400 ft | 360 kts | 312° |
| 2026-04-24 22:18 | 26.21810 | -80.50491 | 16025 ft | 363 kts | 312° |
| 2026-04-24 22:19 | 26.23564 | -80.52528 | 16669 ft | 366 kts | 312° |
| 2026-04-24 22:19 | 26.25338 | -80.54588 | 17337 ft | 369 kts | 312° |
| 2026-04-24 22:19 | 26.27120 | -80.56661 | 18019 ft | 373 kts | 312° |
| 2026-04-24 22:19 | 26.28920 | -80.58755 | 18634 ft | 376 kts | 312° |
| 2026-04-24 22:20 | 26.30741 | -80.60873 | 19224 ft | 379 kts | 312° |
| 2026-04-24 22:20 | 26.32573 | -80.63006 | 19840 ft | 383 kts | 312° |
| 2026-04-24 22:20 | 26.34422 | -80.65160 | 20459 ft | 386 kts | 312° |
| 2026-04-24 22:20 | 26.36292 | -80.67339 | 21086 ft | 390 kts | 312° |
| 2026-04-24 22:21 | 26.38179 | -80.69538 | 21708 ft | 394 kts | 312° |
| 2026-04-24 22:21 | 26.40083 | -80.71760 | 22324 ft | 398 kts | 312° |
| 2026-04-24 22:21 | 26.41991 | -80.74012 | 22930 ft | 401 kts | 311° |
| 2026-04-24 22:21 | 26.43880 | -80.76325 | 23528 ft | 405 kts | 310° |
| 2026-04-24 22:22 | 26.45787 | -80.78663 | 24062 ft | 408 kts | 311° |
| 2026-04-24 22:22 | 26.47695 | -80.80958 | 24626 ft | 410 kts | 311° |
| 2026-04-24 22:22 | 26.49641 | -80.83292 | 25180 ft | 412 kts | 311° |
| 2026-04-24 22:22 | 26.51585 | -80.85650 | 25731 ft | 414 kts | 311° |
| 2026-04-24 22:23 | 26.53538 | -80.88025 | 26283 ft | 416 kts | 311° |
| 2026-04-24 22:23 | 26.55507 | -80.90409 | 26820 ft | 418 kts | 311° |
| 2026-04-24 22:23 | 26.57481 | -80.92794 | 27437 ft | 417 kts | 311° |
| 2026-04-24 22:23 | 26.59450 | -80.95182 | 28050 ft | 419 kts | 311° |
| 2026-04-24 22:24 | 26.61431 | -80.97589 | 28495 ft | 423 kts | 311° |
| 2026-04-24 22:24 | 26.63431 | -81.00017 | 29023 ft | 425 kts | 311° |
| 2026-04-24 22:24 | 26.65379 | -81.02381 | 29528 ft | 427 kts | 311° |
| 2026-04-24 22:24 | 26.67411 | -81.04850 | 30009 ft | 429 kts | 311° |
| 2026-04-24 22:25 | 26.69441 | -81.07318 | 30432 ft | 431 kts | 311° |
| 2026-04-24 22:25 | 26.71455 | -81.09769 | 30859 ft | 433 kts | 311° |
| 2026-04-24 22:25 | 26.73485 | -81.12240 | 31479 ft | 429 kts | 311° |
| 2026-04-24 22:25 | 26.75495 | -81.14688 | 32160 ft | 425 kts | 311° |
| 2026-04-24 22:26 | 26.77485 | -81.17113 | 32808 ft | 422 kts | 311° |
| 2026-04-24 22:26 | 26.79465 | -81.19527 | 33476 ft | 419 kts | 311° |
| 2026-04-24 22:26 | 26.81425 | -81.21919 | 34126 ft | 415 kts | 311° |
| 2026-04-24 22:26 | 26.83375 | -81.24300 | 34657 ft | 413 kts | 311° |
| 2026-04-24 22:27 | 26.85317 | -81.26671 | 35148 ft | 413 kts | 311° |
| 2026-04-24 22:27 | 26.87255 | -81.29039 | 35648 ft | 412 kts | 311° |
| 2026-04-24 22:27 | 26.89183 | -81.31396 | 36295 ft | 408 kts | 311° |
| 2026-04-24 22:27 | 26.91096 | -81.33736 | 36883 ft | 406 kts | 311° |
| 2026-04-24 22:28 | 26.93006 | -81.36076 | 37285 ft | 408 kts | 311° |
| 2026-04-24 22:28 | 26.94923 | -81.38424 | 37781 ft | 408 kts | 311° |
| 2026-04-24 22:28 | 26.96841 | -81.40773 | 38349 ft | 407 kts | 311° |
| 2026-04-24 22:28 | 26.98748 | -81.43111 | 38836 ft | 406 kts | 311° |
| 2026-04-24 22:29 | 27.02541 | -81.47765 | 39647 ft | 407 kts | 311° |
| 2026-04-24 22:29 | 27.04503 | -81.50059 | 40028 ft | 408 kts | 315° |
| 2026-04-24 22:29 | 27.06728 | -81.52046 | 40422 ft | 410 kts | 323° |
| 2026-04-24 22:30 | 27.09131 | -81.53780 | 40826 ft | 411 kts | 324° |
| 2026-04-24 22:30 | 27.11542 | -81.55514 | 41237 ft | 411 kts | 324° |
| 2026-04-24 22:30 | 27.13945 | -81.57262 | 41628 ft | 411 kts | 324° |
| 2026-04-24 22:30 | 27.16351 | -81.59001 | 42009 ft | 412 kts | 324° |
| 2026-04-24 22:31 | 27.18769 | -81.60739 | 42383 ft | 412 kts | 324° |
| 2026-04-24 22:31 | 27.21181 | -81.62479 | 42746 ft | 412 kts | 324° |
| 2026-04-24 22:31 | 27.23598 | -81.64230 | 42936 ft | 417 kts | 324° |
| 2026-04-24 22:31 | 27.26067 | -81.66019 | 42930 ft | 426 kts | 324° |
| 2026-04-24 22:32 | 27.31107 | -81.69662 | 42949 ft | 441 kts | 324° |
| 2026-04-24 22:32 | 27.36349 | -81.73462 | 42948 ft | 455 kts | 324° |
| 2026-04-24 22:33 | 27.41716 | -81.77352 | 42950 ft | 458 kts | 324° |
| 2026-04-24 22:33 | 27.47201 | -81.81039 | 42932 ft | 462 kts | 332° |
| 2026-04-24 22:34 | 27.53113 | -81.83908 | 42958 ft | 463 kts | 333° |
| 2026-04-24 22:34 | 27.59019 | -81.86805 | 42957 ft | 463 kts | 333° |
| 2026-04-24 22:35 | 27.64903 | -81.89663 | 42957 ft | 463 kts | 333° |
| 2026-04-24 22:35 | 27.70819 | -81.92559 | 42953 ft | 463 kts | 333° |
| 2026-04-24 22:36 | 27.76736 | -81.95448 | 42956 ft | 463 kts | 333° |
| 2026-04-24 22:36 | 27.82653 | -81.98347 | 42952 ft | 463 kts | 333° |
| 2026-04-24 22:37 | 27.88590 | -82.01256 | 42945 ft | 466 kts | 333° |
| 2026-04-24 22:37 | 27.94500 | -82.04155 | 42945 ft | 465 kts | 333° |
| 2026-04-24 22:38 | 28.00391 | -82.07050 | 42946 ft | 465 kts | 333° |
| 2026-04-24 22:38 | 28.06328 | -82.09970 | 42946 ft | 465 kts | 333° |
| 2026-04-24 22:39 | 28.11940 | -82.13535 | 42943 ft | 461 kts | 325° |
| 2026-04-24 22:39 | 28.17368 | -82.17384 | 42958 ft | 463 kts | 326° |
| 2026-04-24 22:40 | 28.22827 | -82.21275 | 42962 ft | 463 kts | 325° |
| 2026-04-24 22:40 | 28.28287 | -82.25169 | 42962 ft | 463 kts | 325° |
| 2026-04-24 22:41 | 28.33746 | -82.29065 | 42955 ft | 463 kts | 325° |
| 2026-04-24 22:41 | 28.39197 | -82.32963 | 42965 ft | 463 kts | 325° |
| 2026-04-24 22:42 | 28.44615 | -82.36840 | 42968 ft | 463 kts | 325° |
| 2026-04-24 22:42 | 28.50077 | -82.40755 | 42916 ft | 464 kts | 325° |
| 2026-04-24 22:43 | 28.55594 | -82.44714 | 42959 ft | 475 kts | 324° |
| 2026-04-24 22:43 | 28.61221 | -82.48755 | 42966 ft | 479 kts | 324° |
| 2026-04-24 22:44 | 28.66857 | -82.52809 | 42956 ft | 479 kts | 324° |
| 2026-04-24 22:44 | 28.72489 | -82.56866 | 42959 ft | 479 kts | 324° |
| 2026-04-24 22:45 | 28.78096 | -82.60910 | 42954 ft | 481 kts | 324° |
| 2026-04-24 22:45 | 28.83758 | -82.64998 | 42973 ft | 481 kts | 324° |
| 2026-04-24 22:46 | 28.89413 | -82.69087 | 42972 ft | 481 kts | 324° |
| 2026-04-24 22:46 | 28.95038 | -82.73159 | 42969 ft | 481 kts | 324° |
| 2026-04-24 22:47 | 29.00689 | -82.77257 | 42965 ft | 482 kts | 324° |
| 2026-04-24 22:47 | 29.06352 | -82.81368 | 42979 ft | 481 kts | 324° |
| 2026-04-24 22:48 | 29.12008 | -82.85479 | 42969 ft | 483 kts | 325° |
| 2026-04-24 22:48 | 29.17678 | -82.89605 | 42969 ft | 482 kts | 324° |
| 2026-04-24 22:49 | 29.23357 | -82.93746 | 42971 ft | 485 kts | 324° |
| 2026-04-24 22:49 | 29.29038 | -82.97893 | 42973 ft | 484 kts | 324° |
| 2026-04-24 22:50 | 29.34737 | -83.02060 | 42965 ft | 485 kts | 324° |
| 2026-04-24 22:50 | 29.40388 | -83.06198 | 42959 ft | 484 kts | 324° |
| 2026-04-24 22:51 | 29.46061 | -83.10357 | 42959 ft | 485 kts | 324° |
| 2026-04-24 22:51 | 29.51756 | -83.14537 | 42959 ft | 485 kts | 324° |
| 2026-04-24 22:52 | 29.57439 | -83.18716 | 42950 ft | 486 kts | 324° |
| 2026-04-24 22:52 | 29.63134 | -83.22907 | 42951 ft | 486 kts | 324° |
| 2026-04-24 22:53 | 29.68818 | -83.27097 | 42957 ft | 486 kts | 324° |